• Join FlightAware (Why Join?)
  • Login
  • US Flag 
09:14PM EDT


 

Airport Tracker/Info


-or-


 

Live Flight TrackerFlight Track Log ✈ SWA2975 ✈ 02-Jul-2013 ✈ KMDW - KALB

Flight Track Log - Related Links

Times and Time Zones

All times are in EDT time to prevent confusion due to time zone crossing. See the SWA2975 flight status page for this flight to view local times or setup timezone preferences in your user account.

Time Position Orientation Groundspeed Altitude Reporting Facility
EDT Latitude Longitude Course Direction KTS MPH feet Rate Location/Type
10:52PM 41.7980 -87.7250 84° East 159 183 1,900  Level FlightAware
10:52PM 41.7990 -87.6940 88° East 210 242 2,500 1,740 Climbing FlightAware
10:53PM 41.8000 -87.6580 88° East 220 253 3,500 2,040 Climbing FlightAware
10:53PM 41.8020 -87.5920 88° East 267 307 4,900 1,200 Climbing FlightAware
10:54PM 41.8040 -87.5490 86° East 269 310 4,900  Level FlightAware
10:54PM 41.8050 -87.5280 86° East 270 311 4,900 1,860 Level FlightAware
10:54PM 41.8010 -87.4840 97° East 270 311 6,100 3,300 Climbing FlightAware
10:55PM 41.7960 -87.4300 97° East 276 318 8,100 3,480 Climbing FlightAware
10:55PM 41.7910 -87.3790 97° East 288 331 9,700 3,120 Climbing FlightAware
10:56PM 41.7850 -87.3100 97° East 302 348 11,700 3,240 Climbing FlightAware
10:57PM 41.7770 -87.2240 97° East 308 354 14,300 2,880 Climbing FlightAware
10:57PM 41.7850 -87.1450 82° East 341 392 15,900 1,200 Climbing FlightAware
10:58PM 41.8230 -87.0740 54° Northeast 390 449 15,900  Level FlightAware
10:59PM 41.8660 -86.9910 55° Northeast 404 465 15,900 840 Level FlightAware
11:00PM 41.9050 -86.8860 63° Northeast 404 465 17,200 1,920 Climbing FlightAware
11:00PM 41.9090 -86.8040 86° East 417 480 18,500 2,280 Climbing FlightAware
11:01PM 41.9130 -86.6870 87° East 433 498 20,100 2,160 Climbing FlightAware
11:02PM 41.9160 -86.5790 88° East 445 512 21,600 2,100 Climbing FlightAware
11:02PM 41.9200 -86.4740 87° East 455 524 22,900 1,920 Climbing FlightAware
11:03PM 41.9230 -86.3480 88° East 465 535 24,300 1,800 Climbing FlightAware
11:04PM 41.9270 -86.2080 88° East 474 545 25,700 1,740 Climbing FlightAware
11:04PM 41.9310 -86.0920 87° East 484 557 26,800 1,560 Climbing FlightAware
11:05PM 41.9340 -85.9850 88° East 490 564 27,700 1,800 Climbing FlightAware
11:06PM 41.9370 -85.8640 88° East 484 557 29,100 2,520 Climbing FlightAware
11:06PM 41.9400 -85.7350 88° East 466 536 31,200 1,680 Climbing FlightAware
11:07PM 41.9430 -85.6220 88° East 485 558 31,500 540 Climbing FlightAware
11:08PM 41.9450 -85.5200 88° East 497 572 31,900 960 Climbing FlightAware
11:08PM 41.9470 -85.4010 89° East 502 578 32,700 1,260 Climbing FlightAware
11:09PM 41.9510 -85.2620 88° East 502 578 33,700 1,320 Climbing FlightAware
11:10PM 41.9510 -85.0900 90° East 498 573 34,900 780 Climbing FlightAware
11:11PM 41.9500 -84.9660 91° East 501 577 35,000 60 Climbing FlightAware
11:11PM 41.9490 -84.8430 91° East 502 578 35,000  Level FlightAware
11:12PM 41.9490 -84.6990 90° East 501 577 35,000  Level FlightAware
11:13PM 41.9480 -84.5840 91° East 502 578 35,000  Level FlightAware
11:13PM 41.9470 -84.4430 90° East 502 578 35,000  Level FlightAware
11:14PM 41.9460 -84.3330 91° East 503 579 35,000  Level FlightAware
11:15PM 41.9620 -84.1630 83° East 517 595 35,000  Level FlightAware
11:15PM 41.9780 -84.0360 80° East 516 594 35,000  Level FlightAware
11:16PM 41.9930 -83.9140 81° East 516 594 35,000  Level FlightAware
11:17PM 42.0100 -83.7700 81° East 516 594 35,000  Level FlightAware
11:18PM 42.0250 -83.6440 81° East 516 594 35,000  Level FlightAware
11:18PM 42.0400 -83.5110 81° East 515 593 35,000  Level FlightAware
11:19PM 42.0560 -83.3770 81° East 513 590 35,000  Level FlightAware
11:20PM 42.0700 -83.2520 81° East 512 589 35,000  Level FlightAware
11:20PM 42.1010 -83.1190 73° East 531 611 35,000  Level FlightAware
11:21PM 42.1360 -83.0070 67° East 533 613 35,000  Level FlightAware
11:22PM 42.1790 -82.8880 64° Northeast 533 613 35,000  Level FlightAware
11:22PM 42.2230 -82.7630 65° Northeast 532 612 35,000  Level FlightAware
11:23PM 42.2620 -82.6500 65° Northeast 531 611 35,000  Level FlightAware
11:24PM 42.3000 -82.5360 66° East 529 609 35,000  Level FlightAware
11:24PM 42.3440 -82.4020 66° East 527 606 35,000  Level FlightAware
11:25PM 42.3800 -82.2850 67° East 528 608 35,000  Level FlightAware
11:26PM 42.4380 -82.0990 67° East 529 609 35,000  Level FlightAware
11:27PM 42.4720 -81.9890 67° East 529 609 35,000  Level FlightAware
11:27PM 42.5130 -81.8540 68° East 528 608 35,000  Level FlightAware
11:28PM 42.5500 -81.7370 67° East 528 608 35,000  Level FlightAware
11:29PM 42.5880 -81.6190 66° East 528 608 35,000  Level FlightAware
11:29PM 42.6190 -81.4990 71° East 516 594 35,000  Level FlightAware
11:30PM 42.6220 -81.3870 88° East 495 570 35,000  Level FlightAware
11:31PM 42.6260 -81.2490 88° East 505 581 35,000  Level FlightAware
11:31PM 42.6330 -81.1140 86° East 505 581 35,000  Level FlightAware
11:32PM 42.6380 -80.9920 87° East 504 580 35,000  Level FlightAware
11:33PM 42.6440 -80.8560 87° East 504 580 35,000  Level FlightAware
11:33PM 42.6510 -80.7010 86° East 505 581 35,000  Level FlightAware
11:34PM 42.6570 -80.5740 86° East 507 583 35,000  Level FlightAware
11:35PM 42.6620 -80.4390 87° East 507 583 35,000  Level FlightAware
11:35PM 42.6670 -80.3310 86° East 507 583 35,000  Level FlightAware
11:36PM 42.6720 -80.1920 87° East 507 583 35,000  Level FlightAware
11:37PM 42.6770 -80.0650 87° East 507 583 35,000  Level FlightAware
11:37PM 42.6820 -79.9510 87° East 507 583 35,000  Level FlightAware
11:38PM 42.6870 -79.8260 87° East 507 583 35,000  Level FlightAware
11:39PM 42.6920 -79.6840 87° East 506 582 35,000  Level FlightAware
11:39PM 42.6960 -79.5590 87° East 505 581 35,000  Level FlightAware
11:40PM 42.7010 -79.4200 87° East 506 582 35,000  Level FlightAware
11:41PM 42.7050 -79.2790 88° East 506 582 35,000  Level FlightAware
11:42PM 42.7090 -79.1600 87° East 505 581 35,000  Level FlightAware
11:42PM 42.7130 -79.0400 87° East 505 581 35,000  Level FlightAware
11:43PM 42.7160 -78.9120 88° East 504 580 35,000  Level FlightAware
11:44PM 42.7200 -78.7740 88° East 503 579 35,000  Level FlightAware
11:44PM 42.7230 -78.6660 88° East 503 579 35,000  Level FlightAware
11:45PM 42.7260 -78.5320 88° East 502 578 35,000 -240 Level FlightAware
11:46PM 42.7300 -78.4030 88° East 498 573 34,700 -780 Descending FlightAware
11:46PM 42.7330 -78.2830 88° East 498 573 34,000 -1,020 Descending FlightAware
11:47PM 42.7360 -78.1360 88° East 501 577 33,300 -960 Descending FlightAware
11:48PM 42.7380 -78.0090 89° East 504 580 32,600 -1,080 Descending FlightAware
11:48PM 42.7410 -77.8750 88° East 505 581 31,900 -1,020 Descending FlightAware
11:49PM 42.7440 -77.6970 89° East 511 588 31,000 -600 Descending FlightAware
11:50PM 42.7470 -77.5620 88° East 509 586 31,000  Level FlightAware
11:51PM 42.7490 -77.4300 89° East 490 564 31,000  Level FlightAware
11:51PM 42.7510 -77.3020 89° East 489 563 31,000  Level FlightAware
11:52PM 42.7530 -77.1730 89° East 490 564 31,000  Level FlightAware
11:53PM 42.7550 -77.0500 89° East 490 564 31,000 -360 Level FlightAware
11:54PM 42.7560 -76.9070 89° East 490 564 30,500 -1,320 Descending FlightAware
11:54PM 42.7570 -76.7780 89° East 496 571 29,100 -1,140 Descending FlightAware
11:55PM 42.7590 -76.6530 89° East 497 572 29,000 -120 Descending FlightAware
11:56PM 42.7600 -76.5170 89° East 489 563 29,000  Level FlightAware
11:56PM 42.7610 -76.4070 89° East 486 559 29,000  Level FlightAware
11:57PM 42.7620 -76.2780 89° East 484 557 29,000 -600 Level FlightAware
11:58PM 42.7620 -76.1420 90° East 474 545 28,200 -1,080 Descending FlightAware
11:58PM 42.7630 -76.0230 89° East 475 547 27,500 -1,020 Descending FlightAware
11:59PM 42.7630 -75.8930 90° East 474 545 26,800 -1,500 Descending FlightAware
12:00AM 42.7630 -75.7790 90° East 464 534 25,500 -2,220 Descending FlightAware
12:00AM 42.7630 -75.6530 90° East 453 521 23,800 -2,280 Descending FlightAware
12:01AM 42.7630 -75.5290 90° East 443 510 22,200 -2,160 Descending FlightAware
12:02AM 42.7630 -75.4090 90° East 431 496 20,700 -2,100 Descending FlightAware
12:03AM 42.7630 -75.3010 90° East 420 483 19,300 -2,160 Descending FlightAware
12:03AM 42.7630 -75.2140 90° East 410 472 18,100 -2,160 Descending FlightAware
12:04AM 42.7620 -75.1060 91° East 404 465 16,600 -2,220 Descending FlightAware
12:05AM 42.7620 -75.0000 90° East 395 455 15,000 -2,280 Descending FlightAware
12:05AM 42.7610 -74.9130 91° East 387 445 13,700 -1,620 Descending FlightAware
12:06AM 42.7610 -74.7880 90° East 382 440 12,600 -720 Descending FlightAware
12:07AM 42.7610 -74.7140 90° East 382 440 12,600  Level FlightAware
12:07AM 42.7610 -74.6160 90° East 382 440 12,600 -1,080 Level FlightAware
12:08AM 42.7569 -74.4958 90° East 354 407 11,000 -1,380 Descending Boston Center
12:09AM 42.7653 -74.3858 84° East 333 383 10,200 -1,020 Descending Boston Center
12:10AM 42.7747 -74.3125 80° East 301 346 9,400 -1,740 Descending Boston Center
12:11AM 42.7869 -74.1942 82° East 290 334 7,500 -1,740 Descending Boston Center
12:12AM 42.7992 -74.0869 81° East 289 333 5,900 -1,620 Descending Boston Center
12:13AM 42.8089 -73.9797 83° East 283 326 4,300 -1,620 Descending Boston Center
12:14AM 42.8206 -73.8753 81° East 274 315 2,700 -1,320 Descending Boston Center
12:15AM 42.8050 -73.8042 107° East 196 226 1,700 -720 Descending Boston Center
12:16AM 42.7653 -73.8003 176° South 137 158 1,300 60 Descending Boston Center
12:17AM 42.7950 -73.7672 39° Northeast 190 219 1,900 180 Climbing Boston Center
12:18AM 42.8111 -73.8128 296° West 157 181 1,700 -600 Descending Boston Center
12:19AM 42.7756 -73.8064 172° South 121 139 700 -1,020 Descending Boston Center